createdAt,value
2022-10-25T00:01:01.356Z,100626.94
2022-10-25T00:03:03.933Z,100552.47
2022-10-25T00:05:07.603Z,100624.00
2022-10-25T00:07:10.124Z,100524.09
2022-10-25T00:09:12.733Z,65468.00
2022-10-25T00:11:27.993Z,100635.69
2022-10-25T00:13:30.825Z,100585.06
2022-10-25T00:15:33.364Z,100634.06
2022-10-25T00:17:35.915Z,100634.88
2022-10-25T00:19:38.713Z,100634.88
2022-10-25T00:21:41.466Z,100655.03
2022-10-25T00:23:45.202Z,100640.19
2022-10-25T00:25:48.567Z,100621.63
2022-10-25T00:27:51.128Z,100551.19
2022-10-25T00:29:54.185Z,100611.56
2022-10-25T00:31:56.648Z,100626.13
2022-10-25T00:33:59.192Z,100617.66
2022-10-25T00:36:20.417Z,100627.22
2022-10-25T00:38:23.361Z,100627.75
2022-10-25T00:40:28.016Z,100649.75
2022-10-25T00:42:30.589Z,100588.50
2022-10-25T00:44:54.650Z,100659.78
2022-10-25T00:46:57.226Z,100658.22
2022-10-25T00:49:16.176Z,100628.53
2022-10-25T00:51:20.031Z,100645.75
2022-10-25T00:53:28.582Z,100646.28
2022-10-25T00:55:32.429Z,100597.53
2022-10-25T00:57:47.418Z,100630.66
2022-10-25T00:59:50.941Z,100607.59
2022-10-25T01:01:55.166Z,100598.06
2022-10-25T01:04:02.269Z,100640.19
2022-10-25T01:06:08.167Z,100643.91
2022-10-25T01:08:11.791Z,100538.19
2022-10-25T01:10:14.672Z,100581.09
2022-10-25T01:12:17.454Z,100625.34
2022-10-25T01:14:20.518Z,100617.94
2022-10-25T01:16:33.485Z,100622.19
2022-10-25T01:19:20.822Z,100647.88
2022-10-25T01:21:45.113Z,100630.13
2022-10-25T01:24:00.855Z,100631.44
2022-10-25T01:26:21.352Z,100647.34
2022-10-25T01:28:49.193Z,100623.25
2022-10-25T01:31:40.220Z,100633.56
2022-10-25T01:34:02.976Z,100637.53
2022-10-25T01:36:32.812Z,100644.16
2022-10-25T01:38:59.493Z,100599.38
2022-10-25T01:41:58.535Z,100646.56
2022-10-25T01:44:23.508Z,100644.97
2022-10-25T01:47:20.484Z,100645.50
2022-10-25T01:49:45.684Z,100590.91
2022-10-25T01:51:48.240Z,100636.72
2022-10-25T01:53:52.499Z,100605.69
2022-10-25T01:55:59.194Z,100657.63
2022-10-25T01:58:33.356Z,100657.63
2022-10-25T02:01:02.961Z,100656.06
2022-10-25T02:03:30.338Z,100657.38
2022-10-25T02:06:00.914Z,100647.03
2022-10-25T02:08:48.813Z,100646.25
2022-10-25T02:11:22.909Z,100663.75
2022-10-25T02:13:50.286Z,100671.94
2022-10-25T02:16:08.751Z,100649.69
2022-10-25T02:18:17.912Z,100582.38
2022-10-25T02:20:24.673Z,100642.50
2022-10-25T02:22:31.318Z,100676.19
2022-10-25T02:24:37.059Z,100640.66
2022-10-25T02:26:42.368Z,100666.13
2022-10-25T02:28:46.178Z,100643.88
2022-10-25T02:30:51.438Z,100667.72
2022-10-25T02:32:54.067Z,100538.66
2022-10-25T02:34:56.685Z,100623.22
2022-10-25T02:36:59.644Z,100659.00
2022-10-25T02:39:03.341Z,100653.97
2022-10-25T02:41:06.500Z,100481.47
2022-10-25T02:43:09.055Z,100641.78
2022-10-25T02:45:11.681Z,100641.78
2022-10-25T02:47:14.224Z,100664.56
2022-10-25T02:49:16.744Z,100642.31
2022-10-25T02:51:24.171Z,100642.31
2022-10-25T02:53:26.688Z,100619.81
2022-10-25T02:55:31.209Z,100623.50
2022-10-25T02:57:36.509Z,100679.44
2022-10-25T02:59:39.077Z,100673.63
2022-10-25T03:01:41.702Z,100645.50
2022-10-25T03:03:45.171Z,100687.41
2022-10-25T03:05:47.724Z,100585.09
2022-10-25T03:07:50.258Z,100656.38
2022-10-25T03:09:52.800Z,100625.09
2022-10-25T03:11:55.362Z,100655.81
2022-10-25T03:13:57.931Z,100675.22
2022-10-25T03:16:00.695Z,100668.84
2022-10-25T03:18:03.496Z,100698.53
2022-10-25T03:20:06.910Z,100576.34
2022-10-25T03:22:09.581Z,100656.09
2022-10-25T03:24:12.163Z,100608.66
2022-10-25T03:26:14.752Z,100691.63
2022-10-25T03:28:21.531Z,100702.78
2022-10-25T03:30:24.362Z,100668.31
2022-10-25T03:32:26.890Z,100647.34
2022-10-25T03:34:29.504Z,100617.16
2022-10-25T03:36:34.069Z,100666.19
2022-10-25T03:38:36.664Z,100694.31
2022-10-25T03:40:39.195Z,100675.22
2022-10-25T03:42:41.976Z,100715.22
2022-10-25T03:44:44.585Z,100692.16
2022-10-25T03:46:47.110Z,100672.81
2022-10-25T03:48:49.613Z,100682.38
2022-10-25T03:50:53.433Z,100695.38
2022-10-25T03:52:55.958Z,100663.78
2022-10-25T03:54:58.539Z,100710.22
2022-10-25T03:57:02.177Z,100718.16
2022-10-25T03:59:04.758Z,100680.25
2022-10-25T04:01:10.133Z,100716.53
2022-10-25T04:03:12.758Z,100614.50
2022-10-25T04:05:20.079Z,100670.69
2022-10-25T04:07:22.663Z,100696.66
2022-10-25T04:09:25.213Z,100693.50
2022-10-25T04:11:27.772Z,100718.69
2022-10-25T04:13:30.883Z,100714.97
2022-10-25T04:15:34.441Z,100709.66
2022-10-25T04:17:37.314Z,100691.06
2022-10-25T04:19:39.804Z,100672.53
2022-10-25T04:21:42.815Z,100712.56
2022-10-25T04:23:45.447Z,100691.91
2022-10-25T04:25:47.952Z,100725.81
2022-10-25T04:27:50.509Z,100688.72
2022-10-25T04:29:53.099Z,100708.88
2022-10-25T04:31:55.693Z,100729.28
2022-10-25T04:33:58.222Z,100695.09
2022-10-25T04:36:00.818Z,100716.03
2022-10-25T04:38:03.359Z,100730.34
2022-10-25T04:40:07.380Z,100727.69
2022-10-25T04:44:12.370Z,100671.44
2022-10-25T04:46:15.609Z,100705.38
2022-10-25T04:48:18.532Z,100669.84
2022-10-25T04:50:21.305Z,100720.75
2022-10-25T04:52:23.826Z,100712.00
2022-10-25T04:54:26.513Z,100728.69
2022-10-25T04:56:29.451Z,100712.53
2022-10-25T04:58:33.283Z,100741.69
2022-10-25T05:00:35.841Z,100734.53
2022-10-25T05:02:38.469Z,100738.50
2022-10-25T05:04:42.378Z,100717.28
2022-10-25T05:06:44.938Z,100637.50
2022-10-25T05:08:50.052Z,100710.66
2022-10-25T05:10:55.681Z,100727.09
2022-10-25T05:12:58.276Z,100750.19
2022-10-25T05:15:00.953Z,100729.22
2022-10-25T05:17:03.596Z,100714.34
2022-10-25T05:19:06.261Z,100686.50
2022-10-25T05:21:10.026Z,100748.84
2022-10-25T05:23:12.740Z,100652.59
2022-10-25T05:25:15.661Z,100699.50
2022-10-25T05:27:18.968Z,100740.34
2022-10-25T05:29:21.491Z,100743.53
2022-10-25T05:31:30.137Z,100734.78
2022-10-25T05:33:33.711Z,100740.59
2022-10-25T05:35:43.082Z,100730.25
2022-10-25T05:37:45.778Z,100755.19
2022-10-25T05:39:48.332Z,100766.31
2022-10-25T05:42:42.019Z,100765.28
2022-10-25T05:44:44.558Z,100761.53
2022-10-25T05:46:47.092Z,100716.72
2022-10-25T05:48:51.961Z,100756.25
2022-10-25T05:51:03.400Z,100776.91
2022-10-25T05:53:16.939Z,100755.69
2022-10-25T05:55:19.514Z,100772.66
2022-10-25T05:58:02.971Z,100776.88
2022-10-25T06:00:06.352Z,100770.03
2022-10-25T06:02:10.122Z,100719.03
2022-10-25T06:04:13.812Z,100792.50
2022-10-25T06:06:27.762Z,100768.88
2022-10-25T06:08:32.531Z,100772.56
2022-10-25T06:10:35.141Z,65468.00
2022-10-25T06:12:37.856Z,100774.75
2022-10-25T06:14:40.385Z,100768.94
2022-10-25T06:16:47.139Z,100740.00
2022-10-25T06:18:50.504Z,100799.72
2022-10-25T06:20:53.022Z,100771.88
2022-10-25T06:22:55.709Z,100800.84
2022-10-25T06:24:58.222Z,100792.59
2022-10-25T06:27:00.788Z,100792.38
2022-10-25T06:29:04.993Z,100819.66
2022-10-25T06:31:11.251Z,100815.16
2022-10-25T06:33:13.758Z,100735.81
2022-10-25T06:35:16.415Z,100801.91
2022-10-25T06:37:19.053Z,100805.38
2022-10-25T06:39:21.630Z,100799.25
2022-10-25T06:41:31.424Z,100816.75
2022-10-25T06:43:35.380Z,100789.47
2022-10-25T06:45:37.917Z,100805.13
2022-10-25T06:47:40.495Z,100817.03
2022-10-25T06:49:47.330Z,100812.00
2022-10-25T06:51:50.866Z,100784.97
2022-10-25T06:54:08.035Z,100823.16
2022-10-25T06:56:14.607Z,100821.03
2022-10-25T06:58:17.604Z,100783.34
2022-10-25T07:00:20.149Z,100853.13
2022-10-25T07:02:24.639Z,100838.56
2022-10-25T07:04:27.404Z,100819.97
2022-10-25T07:06:38.008Z,100827.69
2022-10-25T07:08:44.560Z,65468.00
2022-10-25T07:10:54.993Z,100848.09
2022-10-25T07:12:57.515Z,100837.75
2022-10-25T07:15:00.061Z,100834.03
2022-10-25T07:17:02.600Z,100806.72
2022-10-25T07:19:05.441Z,100839.06
2022-10-25T07:21:21.577Z,100847.56
2022-10-25T07:23:24.245Z,100845.44
2022-10-25T07:25:26.809Z,100839.63
2022-10-25T07:27:33.047Z,100838.81
2022-10-25T07:29:42.950Z,100845.16
2022-10-25T07:31:45.553Z,100839.06
2022-10-25T07:33:50.060Z,100854.19
2022-10-25T07:38:17.994Z,100849.66
2022-10-25T07:40:22.578Z,100858.69
2022-10-25T07:42:25.190Z,100833.72
2022-10-25T07:44:27.736Z,100850.72
2022-10-25T07:46:30.250Z,100857.59
2022-10-25T07:48:34.596Z,100865.25
2022-10-25T07:50:37.145Z,100789.69
2022-10-25T07:52:39.695Z,100837.91
2022-10-25T07:56:46.681Z,100839.50
2022-10-25T07:58:50.050Z,100847.47
2022-10-25T08:00:54.598Z,100871.28
2022-10-25T08:02:57.433Z,100864.66
2022-10-25T08:05:01.848Z,100835.19
2022-10-25T08:07:04.429Z,100829.06
2022-10-25T08:09:15.213Z,100830.88
2022-10-25T08:11:30.690Z,100862.97
2022-10-25T08:13:33.309Z,100839.03
2022-10-25T08:15:36.474Z,100767.19
2022-10-25T08:17:39.002Z,100873.97
2022-10-25T08:19:45.466Z,100712.56
2022-10-25T08:21:58.665Z,100712.56
2022-10-25T08:24:01.222Z,100846.59
2022-10-25T08:26:03.932Z,100801.28
2022-10-25T08:28:07.503Z,65468.00
2022-10-25T08:30:10.731Z,65468.00
2022-10-25T08:32:14.071Z,65468.00
2022-10-25T08:34:18.711Z,65468.00
2022-10-25T08:36:21.342Z,100801.28
2022-10-25T08:38:23.909Z,65468.00
2022-10-25T08:40:55.300Z,100801.28
2022-10-25T08:43:54.207Z,100801.28
2022-10-25T08:46:37.233Z,65468.00
2022-10-25T08:48:50.832Z,65468.00
2022-10-25T08:51:03.231Z,65468.00
2022-10-25T08:53:25.642Z,100801.28
2022-10-25T08:55:44.551Z,65468.00
2022-10-25T08:57:57.764Z,65468.00
2022-10-25T09:00:12.857Z,65468.00
2022-10-25T09:03:00.687Z,100801.28
2022-10-25T09:05:06.590Z,100889.03
2022-10-25T09:07:40.605Z,100880.09
2022-10-25T09:10:20.987Z,100887.13
2022-10-25T09:12:46.647Z,100905.22
2022-10-25T09:15:21.800Z,100914.28
2022-10-25T09:17:39.637Z,100896.50
2022-10-25T09:20:07.363Z,100908.47
2022-10-25T09:22:49.144Z,100863.53
2022-10-25T09:25:04.026Z,100907.28
2022-10-25T09:27:14.684Z,100896.47
2022-10-25T09:29:46.422Z,100919.25
2022-10-25T09:31:55.878Z,100855.59
2022-10-25T09:34:04.473Z,100796.22
2022-10-25T09:36:09.701Z,100867.41
2022-10-25T09:38:19.806Z,100920.09
2022-10-25T09:40:30.324Z,100904.94
2022-10-25T09:42:43.148Z,100911.34
2022-10-25T09:45:00.965Z,100879.34
2022-10-25T09:47:24.572Z,100917.00
2022-10-25T09:49:38.811Z,100931.88
2022-10-25T09:52:19.858Z,100924.53
2022-10-25T09:55:03.806Z,100941.59
2022-10-25T09:57:10.149Z,100849.16
2022-10-25T09:59:15.636Z,100806.72
2022-10-25T10:01:27.298Z,100888.03
2022-10-25T10:03:36.654Z,100898.69
2022-10-25T10:05:44.976Z,100930.41
2022-10-25T10:07:49.608Z,100901.31
2022-10-25T10:09:58.707Z,100935.81
2022-10-25T10:12:05.593Z,100827.16
2022-10-25T10:14:28.265Z,100930.38
2022-10-25T10:16:55.331Z,100942.81
2022-10-25T10:19:23.433Z,100948.31
2022-10-25T10:21:26.049Z,100856.16
2022-10-25T10:23:33.734Z,100943.53
2022-10-25T10:25:36.255Z,100935.38
2022-10-25T10:27:41.541Z,100814.28
2022-10-25T10:29:56.726Z,100948.81
2022-10-25T10:32:06.653Z,100950.63
2022-10-25T10:34:30.750Z,100957.00
2022-10-25T10:36:33.717Z,100806.03
2022-10-25T10:38:36.297Z,100944.53
2022-10-25T10:40:38.913Z,100914.78
2022-10-25T10:42:42.812Z,100944.47
2022-10-25T10:45:12.253Z,100957.13
2022-10-25T10:47:21.306Z,100932.03
2022-10-25T10:49:35.903Z,100942.19
2022-10-25T10:51:44.315Z,100918.41
2022-10-25T10:53:47.578Z,100925.56
2022-10-25T10:56:29.752Z,100925.56
2022-10-25T10:58:35.719Z,100962.13
2022-10-25T11:00:38.369Z,100922.66
2022-10-25T11:02:43.148Z,100932.31
2022-10-25T11:04:55.128Z,100941.28
2022-10-25T11:07:14.711Z,100941.72
2022-10-25T11:09:25.489Z,100947.19
2022-10-25T11:11:29.128Z,100960.84
2022-10-25T11:13:32.087Z,100912.56
2022-10-25T11:15:58.519Z,100973.53
2022-10-25T11:18:05.240Z,100964.16
2022-10-25T11:20:28.158Z,100977.13
2022-10-25T11:23:04.217Z,100943.53
2022-10-25T11:25:34.261Z,100974.59
2022-10-25T11:27:55.769Z,100967.63
2022-10-25T11:30:17.189Z,100964.78
2022-10-25T11:33:04.361Z,100979.66
2022-10-25T11:35:36.054Z,100981.97
2022-10-25T11:38:03.032Z,100959.31
2022-10-25T11:40:31.317Z,100990.31
2022-10-25T11:42:46.366Z,100977.91
2022-10-25T11:45:33.076Z,100985.03
2022-10-25T11:48:17.398Z,100978.06
2022-10-25T11:50:40.800Z,100976.50
2022-10-25T11:52:56.037Z,100973.56
2022-10-25T11:55:38.005Z,100969.94
2022-10-25T11:58:08.242Z,100967.34
2022-10-25T12:00:15.287Z,100981.31
2022-10-25T12:02:44.022Z,100974.09
2022-10-25T12:05:13.126Z,100974.09
2022-10-25T12:07:38.791Z,100965.88
2022-10-25T12:10:10.648Z,100975.84
2022-10-25T12:12:22.830Z,100940.88
2022-10-25T12:14:33.094Z,100950.63
2022-10-25T12:16:37.812Z,100984.59
2022-10-25T12:18:50.133Z,100975.34
2022-10-25T12:20:53.639Z,100892.16
2022-10-25T12:22:59.928Z,100985.28
2022-10-25T12:25:24.820Z,100959.97
2022-10-25T12:27:31.212Z,100968.56
2022-10-25T12:29:41.840Z,100985.38
2022-10-25T12:31:56.799Z,100967.88
2022-10-25T12:34:08.837Z,100979.75
2022-10-25T12:36:32.079Z,100919.31
2022-10-25T12:38:38.738Z,100963.34
2022-10-25T12:40:47.715Z,100961.06
2022-10-25T12:43:32.761Z,100973.41
2022-10-25T12:46:16.817Z,100946.88
2022-10-25T12:48:45.960Z,100968.66
2022-10-25T12:51:33.045Z,100949.41
2022-10-25T12:53:49.050Z,100963.81
2022-10-25T12:56:19.727Z,100973.97
2022-10-25T12:58:50.037Z,100960.41
2022-10-25T13:01:05.885Z,100961.50
2022-10-25T13:03:29.341Z,100986.59
2022-10-25T13:06:08.882Z,100976.28
2022-10-25T13:08:16.898Z,100980.97
2022-10-25T13:10:22.622Z,100987.25
2022-10-25T13:12:30.764Z,100983.16
2022-10-25T13:14:41.260Z,100999.09
2022-10-25T13:16:45.849Z,100965.09
2022-10-25T13:19:12.716Z,100985.25
2022-10-25T13:21:53.870Z,100994.88
2022-10-25T13:24:00.864Z,100966.78
2022-10-25T13:26:08.708Z,100987.06
2022-10-25T13:28:15.060Z,100983.66
2022-10-25T13:30:28.771Z,100932.50
2022-10-25T13:32:42.350Z,100972.66
2022-10-25T13:34:45.865Z,100975.41
2022-10-25T13:36:56.528Z,100987.44
2022-10-25T13:39:07.005Z,100959.97
2022-10-25T13:41:22.186Z,100996.59
2022-10-25T13:43:26.218Z,100983.97
2022-10-25T13:45:33.382Z,101007.50
2022-10-25T13:48:14.242Z,101004.50
2022-10-25T13:50:29.158Z,101004.44
2022-10-25T13:52:35.255Z,100994.41
2022-10-25T13:54:50.661Z,100990.94
2022-10-25T13:57:01.069Z,100996.56
2022-10-25T13:59:04.605Z,101024.53
2022-10-25T14:01:16.314Z,101027.78
2022-10-25T14:03:19.891Z,101026.97
2022-10-25T14:05:56.953Z,101037.34
2022-10-25T14:08:32.281Z,101031.81
2022-10-25T14:10:37.894Z,100974.59
2022-10-25T14:12:45.376Z,101010.47
2022-10-25T14:14:48.019Z,101039.00
2022-10-25T14:17:12.524Z,101043.38
2022-10-25T14:19:37.819Z,101042.09
2022-10-25T14:21:46.857Z,101038.66
2022-10-25T14:23:51.909Z,101041.81
2022-10-25T14:25:58.820Z,101006.78
2022-10-25T14:28:12.161Z,101036.94
2022-10-25T14:30:23.577Z,101043.31
2022-10-25T14:32:26.918Z,101021.31
2022-10-25T14:34:30.124Z,101014.94
2022-10-25T14:36:37.946Z,101025.28
2022-10-25T14:39:05.314Z,101037.69
2022-10-25T14:41:12.798Z,101001.91
2022-10-25T14:43:42.091Z,101011.41
2022-10-25T14:46:25.303Z,101017.25
2022-10-25T14:48:28.929Z,100978.03
2022-10-25T14:50:31.842Z,101029.50
2022-10-25T14:52:36.132Z,101028.75
2022-10-25T14:55:01.940Z,101038.13
2022-10-25T14:57:10.929Z,101013.78
2022-10-25T14:59:42.794Z,101025.53
2022-10-25T15:01:58.205Z,101042.31
2022-10-25T15:04:01.443Z,101041.84
2022-10-25T15:06:05.688Z,101001.31
2022-10-25T15:08:24.363Z,101053.91
2022-10-25T15:10:41.953Z,101046.50
2022-10-25T15:12:51.293Z,101025.84
2022-10-25T15:14:56.078Z,100980.19
2022-10-25T15:17:15.415Z,101046.31
2022-10-25T15:19:20.621Z,101048.22
2022-10-25T15:21:23.224Z,101034.38
2022-10-25T15:23:25.721Z,101022.75
2022-10-25T15:25:32.010Z,101046.13
2022-10-25T15:27:40.383Z,101049.03
2022-10-25T15:29:42.872Z,101046.16
2022-10-25T15:31:45.471Z,101040.84
2022-10-25T15:33:48.424Z,101029.69
2022-10-25T15:35:57.865Z,101001.03
2022-10-25T15:38:00.420Z,101028.34
2022-10-25T15:40:15.474Z,101048.03
2022-10-25T15:42:26.941Z,101040.06
2022-10-25T15:44:29.457Z,100973.66
2022-10-25T15:46:35.178Z,101033.16
2022-10-25T15:48:37.803Z,101012.19
2022-10-25T15:50:46.805Z,101062.41
2022-10-25T15:52:49.745Z,101060.53
2022-10-25T15:54:52.638Z,101009.25
2022-10-25T15:56:58.301Z,101039.00
2022-10-25T15:59:02.619Z,101053.59
2022-10-25T16:01:05.350Z,101052.28
2022-10-25T16:03:09.995Z,101066.34
2022-10-25T16:05:27.996Z,101073.75
2022-10-25T16:07:31.297Z,101050.56
2022-10-25T16:09:34.028Z,101033.25
2022-10-25T16:11:39.095Z,101080.03
2022-10-25T16:13:43.689Z,101080.28
2022-10-25T16:15:46.247Z,101056.31
2022-10-25T16:17:49.310Z,101077.31
2022-10-25T16:19:51.820Z,101066.63
2022-10-25T16:21:55.125Z,101086.28
2022-10-25T16:23:58.492Z,101066.56
2022-10-25T16:26:01.067Z,101063.31
2022-10-25T16:28:04.902Z,101076.56
2022-10-25T16:30:13.523Z,101074.88
2022-10-25T16:32:19.006Z,101078.53
2022-10-25T16:34:22.831Z,101097.19
2022-10-25T16:36:25.338Z,101069.97
2022-10-25T16:38:27.916Z,101068.63
2022-10-25T16:40:30.748Z,101077.91
2022-10-25T16:42:38.238Z,101102.88
2022-10-25T16:44:41.469Z,101089.81
2022-10-25T16:46:45.024Z,101086.84
2022-10-25T16:48:48.474Z,101089.19
2022-10-25T16:50:52.032Z,101067.06
2022-10-25T16:52:58.536Z,101108.56
2022-10-25T16:55:01.092Z,101085.91
2022-10-25T16:57:04.413Z,101053.06
2022-10-25T16:59:06.915Z,100993.94
2022-10-25T17:01:33.774Z,101118.00
2022-10-25T17:03:36.991Z,101085.53
2022-10-25T17:05:40.333Z,101102.50
2022-10-25T17:07:45.867Z,101101.13
2022-10-25T17:09:49.654Z,101096.06
2022-10-25T17:11:52.188Z,101115.16
2022-10-25T17:13:57.905Z,101122.59
2022-10-25T17:16:11.031Z,101116.41
2022-10-25T17:18:18.420Z,101063.28
2022-10-25T17:20:21.349Z,101093.56
2022-10-25T17:22:25.323Z,101100.81
2022-10-25T17:24:27.956Z,101100.81
2022-10-25T17:26:30.729Z,101100.81
2022-10-25T17:28:34.124Z,101112.34
2022-10-25T17:30:36.725Z,101112.34
2022-10-25T17:32:40.277Z,101126.63
2022-10-25T17:34:42.836Z,101119.97
2022-10-25T17:36:45.492Z,101101.75
2022-10-25T17:38:50.705Z,101121.94
2022-10-25T17:40:53.337Z,101124.56
2022-10-25T17:42:56.006Z,101131.97
2022-10-25T17:44:58.557Z,101049.25
2022-10-25T17:47:03.326Z,101131.31
2022-10-25T17:49:06.438Z,101143.78
2022-10-25T17:51:14.109Z,101143.78
2022-10-25T17:53:16.688Z,101099.34
2022-10-25T17:55:19.481Z,101155.03
2022-10-25T17:57:21.997Z,101120.34
2022-10-25T17:59:24.621Z,101102.72
2022-10-25T18:01:28.578Z,101142.09
2022-10-25T18:03:31.575Z,101151.41
2022-10-25T18:05:34.149Z,101141.16
2022-10-25T18:07:38.109Z,65468.00
2022-10-25T18:09:40.713Z,65468.00
2022-10-25T18:11:44.976Z,65468.00
2022-10-25T18:13:47.748Z,101147.38
2022-10-25T18:15:52.126Z,65468.00
2022-10-25T18:17:54.677Z,101147.38
2022-10-25T18:19:57.176Z,101147.38
2022-10-25T18:22:00.819Z,65468.00
2022-10-25T18:24:07.447Z,65468.00
2022-10-25T18:26:12.035Z,65468.00
2022-10-25T18:28:15.556Z,65468.00
2022-10-25T18:30:18.126Z,65468.00
2022-10-25T18:32:30.937Z,65468.00
2022-10-25T18:34:36.454Z,65468.00
2022-10-25T18:36:39.429Z,65468.00
2022-10-25T18:38:42.498Z,65468.00
2022-10-25T18:40:45.217Z,65468.00
2022-10-25T18:42:48.865Z,65468.00
2022-10-25T18:44:53.011Z,65468.00
2022-10-25T18:46:55.940Z,65468.00
2022-10-25T18:48:59.119Z,65468.00
2022-10-25T18:51:11.171Z,65468.00
2022-10-25T18:53:13.694Z,65468.00
2022-10-25T18:55:16.266Z,101147.38
2022-10-25T18:57:18.791Z,101147.38
2022-10-25T18:59:21.298Z,65468.00
2022-10-25T19:01:27.996Z,65468.00
2022-10-25T19:03:32.491Z,65468.00
2022-10-25T19:05:39.873Z,65468.00
2022-10-25T19:07:43.143Z,65468.00
2022-10-25T19:09:45.687Z,101148.06
2022-10-25T19:11:48.165Z,65468.00
2022-10-25T19:13:55.844Z,101173.28
2022-10-25T19:15:59.030Z,65468.00
2022-10-25T19:18:01.640Z,101167.59
2022-10-25T19:20:05.076Z,101167.59
2022-10-25T19:22:07.666Z,101153.97
2022-10-25T19:24:14.015Z,101146.13
2022-10-25T19:26:20.335Z,101146.13
2022-10-25T19:28:23.296Z,101148.50
2022-10-25T19:30:26.152Z,101148.50
2022-10-25T19:32:31.323Z,65468.00
2022-10-25T19:34:33.844Z,101170.50
2022-10-25T19:36:36.442Z,101052.38
2022-10-25T19:38:40.422Z,101052.38
2022-10-25T19:40:45.950Z,101052.38
2022-10-25T19:42:48.487Z,101052.38
2022-10-25T19:44:52.703Z,60529.34
2022-10-25T19:46:55.289Z,65468.00
2022-10-25T19:49:04.157Z,65468.00
2022-10-25T19:51:13.639Z,65468.00
2022-10-25T19:53:16.743Z,65468.00
2022-10-25T19:55:19.814Z,101052.38
2022-10-25T19:57:22.369Z,101152.69
2022-10-25T19:59:24.964Z,65468.00
2022-10-25T20:01:28.270Z,65468.00
2022-10-25T20:03:30.990Z,65468.00
2022-10-25T20:05:33.982Z,65468.00
2022-10-25T20:07:38.816Z,65468.00
2022-10-25T20:09:41.409Z,101191.78
2022-10-25T20:11:44.652Z,65468.00
2022-10-25T20:13:47.379Z,101191.78
2022-10-25T20:15:52.407Z,101191.78
2022-10-25T20:17:55.537Z,101202.22
2022-10-25T20:19:58.021Z,65468.00
2022-10-25T20:22:00.841Z,65468.00
2022-10-25T20:24:07.396Z,101202.22
2022-10-25T20:26:16.547Z,101208.72
2022-10-25T20:28:19.085Z,65468.00
2022-10-25T20:30:22.200Z,65468.00
2022-10-25T20:32:24.916Z,101194.84
2022-10-25T20:34:27.532Z,101194.84
2022-10-25T20:36:32.301Z,101200.94
2022-10-25T20:38:36.177Z,101209.31
2022-10-25T20:40:40.680Z,65468.00
2022-10-25T20:42:43.253Z,101204.72
2022-10-25T20:44:45.851Z,65468.00
2022-10-25T20:46:50.385Z,65468.00
2022-10-25T20:48:53.782Z,65468.00
2022-10-25T20:50:56.413Z,65468.00
2022-10-25T20:53:09.744Z,101214.72
2022-10-25T20:55:13.137Z,101214.72
2022-10-25T20:57:15.643Z,65468.00
2022-10-25T20:59:18.229Z,65468.00
2022-10-25T21:01:20.854Z,101151.66
2022-10-25T21:03:28.757Z,65468.00
2022-10-25T21:05:31.603Z,65468.00
2022-10-25T21:07:34.447Z,65468.00
2022-10-25T21:09:37.018Z,65468.00
2022-10-25T21:11:39.647Z,65468.00
2022-10-25T21:13:42.338Z,65468.00
2022-10-25T21:15:47.513Z,65468.00
2022-10-25T21:17:50.533Z,65468.00
2022-10-25T21:19:53.344Z,65468.00
2022-10-25T21:21:55.857Z,65468.00
2022-10-25T21:23:59.455Z,65468.00
2022-10-25T21:26:07.755Z,65468.00
2022-10-25T21:28:10.321Z,65468.00
2022-10-25T21:30:12.929Z,65468.00
2022-10-25T21:32:15.577Z,65468.00
2022-10-25T21:36:21.950Z,101194.06
2022-10-25T21:38:24.566Z,65468.00
2022-10-25T21:40:27.828Z,65468.00
2022-10-25T21:42:33.968Z,101214.78
2022-10-25T21:44:36.513Z,65468.00
2022-10-25T21:46:39.092Z,65468.00
2022-10-25T21:48:42.114Z,101214.78
2022-10-25T21:50:44.681Z,65468.00
2022-10-25T21:52:47.266Z,65468.00
2022-10-25T21:54:49.859Z,65468.00
2022-10-25T21:56:52.965Z,65468.00
2022-10-25T21:58:58.895Z,101214.22
2022-10-25T22:01:01.475Z,101190.06
2022-10-25T22:03:04.197Z,65468.00
2022-10-25T22:05:06.935Z,65468.00
2022-10-25T22:07:09.863Z,65468.00
2022-10-25T22:09:29.706Z,65468.00
2022-10-25T22:11:35.323Z,101190.06
2022-10-25T22:13:37.862Z,65468.00
2022-10-25T22:15:40.398Z,65468.00
2022-10-25T22:17:43.013Z,65468.00
2022-10-25T22:19:45.497Z,65468.00
2022-10-25T22:21:50.713Z,65468.00
2022-10-25T22:23:53.311Z,65468.00
2022-10-25T22:26:00.533Z,65468.00
2022-10-25T22:28:10.877Z,65468.00
2022-10-25T22:30:13.622Z,65468.00
2022-10-25T22:32:16.135Z,65468.00
2022-10-25T22:34:18.731Z,65468.00
2022-10-25T22:36:23.795Z,65468.00
2022-10-25T22:38:28.985Z,65468.00
2022-10-25T22:40:31.495Z,65468.00
2022-10-25T22:42:34.007Z,65468.00
2022-10-25T22:44:36.528Z,65468.00
2022-10-25T22:46:39.120Z,101243.78
2022-10-25T22:48:43.770Z,101243.78
2022-10-25T22:50:51.586Z,65468.00
2022-10-25T22:52:54.105Z,65468.00
2022-10-25T22:54:56.641Z,65468.00
2022-10-25T22:56:59.167Z,65468.00
2022-10-25T22:59:05.354Z,65468.00
2022-10-25T23:01:10.302Z,65468.00
2022-10-25T23:03:12.876Z,101195.53
2022-10-25T23:05:15.524Z,65468.00
2022-10-25T23:07:18.032Z,101195.53
2022-10-25T23:09:20.611Z,65468.00
2022-10-25T23:11:26.975Z,65468.00
2022-10-25T23:13:33.119Z,65468.00
2022-10-25T23:15:36.369Z,65468.00
2022-10-25T23:17:39.753Z,65468.00
2022-10-25T23:19:43.623Z,65468.00
2022-10-25T23:21:46.158Z,65468.00
2022-10-25T23:23:49.473Z,65468.00
2022-10-25T23:25:53.591Z,65468.00
2022-10-25T23:27:56.096Z,65468.00
2022-10-25T23:29:58.656Z,65468.00
2022-10-25T23:32:01.210Z,101195.53
2022-10-25T23:34:03.741Z,65468.00
2022-10-25T23:36:15.616Z,101254.50
2022-10-25T23:38:18.233Z,65468.00
2022-10-25T23:40:20.909Z,65468.00
2022-10-25T23:42:23.443Z,101254.50
2022-10-25T23:44:26.668Z,101248.75
2022-10-25T23:46:29.218Z,101248.75
2022-10-25T23:48:32.966Z,101248.75
2022-10-25T23:50:35.522Z,101228.75
2022-10-25T23:52:38.066Z,101232.53
2022-10-25T23:54:40.581Z,101232.53
2022-10-25T23:56:43.127Z,101232.53
2022-10-25T23:58:45.678Z,65468.00
